sensor_id;sensor_type;location;lat;lon;timestamp;pressure;altitude;pressure_sealevel;temperature;humidity
39897;BME280;25567;48.276;14.242;2023-01-28T00:00:49;98806.31;;;-0.91;100.00
39897;BME280;25567;48.276;14.242;2023-01-28T00:03:16;98808.31;;;-0.85;100.00
39897;BME280;25567;48.276;14.242;2023-01-28T00:05:42;98804.97;;;-0.95;100.00
39897;BME280;25567;48.276;14.242;2023-01-28T00:08:09;98800.84;;;-0.98;100.00
39897;BME280;25567;48.276;14.242;2023-01-28T00:10:36;98802.94;;;-1.02;100.00
39897;BME280;25567;48.276;14.242;2023-01-28T00:13:09;98806.63;;;-1.04;100.00
39897;BME280;25567;48.276;14.242;2023-01-28T00:15:37;98806.69;;;-0.86;100.00
39897;BME280;25567;48.276;14.242;2023-01-28T00:18:04;98808.41;;;-0.77;100.00
39897;BME280;25567;48.276;14.242;2023-01-28T00:20:30;98799.16;;;-0.89;100.00
39897;BME280;25567;48.276;14.242;2023-01-28T00:22:57;98805.91;;;-0.96;100.00
39897;BME280;25567;48.276;14.242;2023-01-28T00:25:24;98803.72;;;-1.01;100.00
39897;BME280;25567;48.276;14.242;2023-01-28T00:27:50;98807.75;;;-1.07;100.00
39897;BME280;25567;48.276;14.242;2023-01-28T00:30:17;98803.34;;;-1.06;100.00
39897;BME280;25567;48.276;14.242;2023-01-28T00:32:44;98806.78;;;-1.06;100.00
39897;BME280;25567;48.276;14.242;2023-01-28T00:35:11;98808.56;;;-1.06;100.00
39897;BME280;25567;48.276;14.242;2023-01-28T00:37:39;98802.38;;;-1.05;100.00
39897;BME280;25567;48.276;14.242;2023-01-28T00:40:06;98808.56;;;-1.06;100.00
39897;BME280;25567;48.276;14.242;2023-01-28T00:42:35;98808.44;;;-1.05;100.00
39897;BME280;25567;48.276;14.242;2023-01-28T00:45:03;98805.53;;;-1.02;100.00
39897;BME280;25567;48.276;14.242;2023-01-28T00:47:29;98820.34;;;-1.02;100.00
39897;BME280;25567;48.276;14.242;2023-01-28T00:50:02;98813.03;;;-0.98;100.00
39897;BME280;25567;48.276;14.242;2023-01-28T00:52:29;98817.28;;;-0.97;100.00
39897;BME280;25567;48.276;14.242;2023-01-28T00:54:56;98821.38;;;-0.95;100.00
39897;BME280;25567;48.276;14.242;2023-01-28T00:57:23;98820.59;;;-0.95;100.00
39897;BME280;25567;48.276;14.242;2023-01-28T00:59:50;98822.81;;;-1.01;100.00
39897;BME280;25567;48.276;14.242;2023-01-28T01:02:16;98822.41;;;-1.06;100.00
39897;BME280;25567;48.276;14.242;2023-01-28T01:04:43;98822.03;;;-1.11;100.00
39897;BME280;25567;48.276;14.242;2023-01-28T01:07:22;98824.91;;;-1.14;100.00
39897;BME280;25567;48.276;14.242;2023-01-28T01:10:00;98822.59;;;-1.17;100.00
39897;BME280;25567;48.276;14.242;2023-01-28T01:12:28;98828.91;;;-1.20;100.00
39897;BME280;25567;48.276;14.242;2023-01-28T01:14:55;98822.31;;;-1.14;100.00
39897;BME280;25567;48.276;14.242;2023-01-28T01:17:22;98825.34;;;-1.19;100.00
39897;BME280;25567;48.276;14.242;2023-01-28T01:19:49;98832.34;;;-1.19;100.00
39897;BME280;25567;48.276;14.242;2023-01-28T01:22:16;98826.03;;;-1.16;100.00
39897;BME280;25567;48.276;14.242;2023-01-28T01:24:42;98824.09;;;-1.14;100.00
39897;BME280;25567;48.276;14.242;2023-01-28T01:27:09;98830.50;;;-1.09;100.00
39897;BME280;25567;48.276;14.242;2023-01-28T01:29:35;98827.63;;;-1.06;100.00
39897;BME280;25567;48.276;14.242;2023-01-28T01:32:02;98827.78;;;-1.07;100.00
39897;BME280;25567;48.276;14.242;2023-01-28T01:34:29;98823.06;;;-1.04;100.00
39897;BME280;25567;48.276;14.242;2023-01-28T01:36:56;98821.97;;;-1.01;100.00
39897;BME280;25567;48.276;14.242;2023-01-28T01:39:23;98824.94;;;-0.96;100.00
39897;BME280;25567;48.276;14.242;2023-01-28T01:41:50;98830.47;;;-0.99;100.00
39897;BME280;25567;48.276;14.242;2023-01-28T01:47:15;98831.56;;;-1.02;100.00
39897;BME280;25567;48.276;14.242;2023-01-28T01:49:43;98835.13;;;-1.03;100.00
39897;BME280;25567;48.276;14.242;2023-01-28T01:52:14;98833.22;;;-1.01;100.00
39897;BME280;25567;48.276;14.242;2023-01-28T01:54:45;98845.13;;;-0.98;100.00
39897;BME280;25567;48.276;14.242;2023-01-28T01:57:16;98832.38;;;-1.01;100.00
39897;BME280;25567;48.276;14.242;2023-01-28T01:59:45;98838.28;;;-0.99;100.00
39897;BME280;25567;48.276;14.242;2023-01-28T02:02:11;98836.47;;;-0.98;100.00
39897;BME280;25567;48.276;14.242;2023-01-28T02:04:42;98839.63;;;-0.95;100.00
39897;BME280;25567;48.276;14.242;2023-01-28T02:07:12;98839.63;;;-0.95;100.00
39897;BME280;25567;48.276;14.242;2023-01-28T02:09:40;98843.03;;;-0.94;100.00
39897;BME280;25567;48.276;14.242;2023-01-28T02:12:11;98851.00;;;-0.96;100.00
39897;BME280;25567;48.276;14.242;2023-01-28T02:14:56;98843.19;;;-0.96;100.00
39897;BME280;25567;48.276;14.242;2023-01-28T02:17:25;98846.63;;;-0.95;100.00
39897;BME280;25567;48.276;14.242;2023-01-28T02:19:58;98843.03;;;-0.94;100.00
39897;BME280;25567;48.276;14.242;2023-01-28T02:30:56;98840.56;;;-0.96;100.00
39897;BME280;25567;48.276;14.242;2023-01-28T02:33:28;98840.72;;;-0.97;100.00
39897;BME280;25567;48.276;14.242;2023-01-28T02:36:04;98843.72;;;-0.92;100.00
39897;BME280;25567;48.276;14.242;2023-01-28T02:38:41;98843.56;;;-0.91;100.00
39897;BME280;25567;48.276;14.242;2023-01-28T02:41:17;98840.00;;;-0.90;100.00
39897;BME280;25567;48.276;14.242;2023-01-28T02:43:46;98839.84;;;-0.88;100.00
39897;BME280;25567;48.276;14.242;2023-01-28T02:46:33;98844.38;;;-0.90;100.00
39897;BME280;25567;48.276;14.242;2023-01-28T02:49:21;98845.63;;;-0.94;100.00
39897;BME280;25567;48.276;14.242;2023-01-28T03:00:53;98848.94;;;-0.92;100.00
39897;BME280;25567;48.276;14.242;2023-01-28T03:03:26;98848.25;;;-0.94;100.00
39897;BME280;25567;48.276;14.242;2023-01-28T03:06:00;98856.06;;;-0.94;100.00
39897;BME280;25567;48.276;14.242;2023-01-28T03:11:16;98852.63;;;-0.95;100.00
39897;BME280;25567;48.276;14.242;2023-01-28T03:13:58;98850.44;;;-0.99;100.00
39897;BME280;25567;48.276;14.242;2023-01-28T03:16:41;98855.97;;;-1.03;100.00
39897;BME280;25567;48.276;14.242;2023-01-28T03:19:23;98852.94;;;-0.98;100.00
39897;BME280;25567;48.276;14.242;2023-01-28T03:22:05;98854.47;;;-1.05;100.00
39897;BME280;25567;48.276;14.242;2023-01-28T03:24:49;98861.84;;;-1.01;100.00
39897;BME280;25567;48.276;14.242;2023-01-28T03:27:49;98857.91;;;-1.05;100.00
39897;BME280;25567;48.276;14.242;2023-01-28T03:30:41;98868.03;;;-1.02;100.00
39897;BME280;25567;48.276;14.242;2023-01-28T03:33:24;98870.47;;;-1.00;100.00
39897;BME280;25567;48.276;14.242;2023-01-28T03:36:07;98870.22;;;-1.07;100.00
39897;BME280;25567;48.276;14.242;2023-01-28T03:38:49;98870.31;;;-0.98;100.00
39897;BME280;25567;48.276;14.242;2023-01-28T03:41:24;98883.88;;;-0.95;100.00
39897;BME280;25567;48.276;14.242;2023-01-28T03:43:52;98873.88;;;-0.99;100.00
39897;BME280;25567;48.276;14.242;2023-01-28T03:46:19;98885.28;;;-1.01;100.00
39897;BME280;25567;48.276;14.242;2023-01-28T03:48:45;98878.97;;;-0.98;100.00
39897;BME280;25567;48.276;14.242;2023-01-28T03:51:12;98876.22;;;-0.96;100.00
39897;BME280;25567;48.276;14.242;2023-01-28T03:53:39;98881.13;;;-0.93;100.00
39897;BME280;25567;48.276;14.242;2023-01-28T03:56:06;98883.25;;;-1.07;100.00
39897;BME280;25567;48.276;14.242;2023-01-28T03:58:34;98882.44;;;-1.07;100.00
39897;BME280;25567;48.276;14.242;2023-01-28T04:01:15;98884.59;;;-1.03;100.00
39897;BME280;25567;48.276;14.242;2023-01-28T04:03:42;98886.81;;;-1.08;100.00
39897;BME280;25567;48.276;14.242;2023-01-28T04:06:09;98886.97;;;-1.09;100.00
39897;BME280;25567;48.276;14.242;2023-01-28T04:08:35;98889.97;;;-1.04;100.00
39897;BME280;25567;48.276;14.242;2023-01-28T04:11:02;98891.16;;;-0.98;100.00
39897;BME280;25567;48.276;14.242;2023-01-28T04:13:47;98897.72;;;-0.94;100.00
39897;BME280;25567;48.276;14.242;2023-01-28T04:16:15;98895.91;;;-0.84;100.00
39897;BME280;25567;48.276;14.242;2023-01-28T04:18:43;98894.25;;;-0.85;100.00
39897;BME280;25567;48.276;14.242;2023-01-28T04:21:11;98907.28;;;-0.85;100.00
39897;BME280;25567;48.276;14.242;2023-01-28T04:23:38;98899.94;;;-0.99;100.00
39897;BME280;25567;48.276;14.242;2023-01-28T04:26:04;98906.69;;;-1.07;98.91
39897;BME280;25567;48.276;14.242;2023-01-28T04:28:31;98900.13;;;-1.11;95.91
39897;BME280;25567;48.276;14.242;2023-01-28T04:30:57;98900.53;;;-1.15;96.23
39897;BME280;25567;48.276;14.242;2023-01-28T04:33:24;98903.97;;;-1.15;95.98
39897;BME280;25567;48.276;14.242;2023-01-28T04:35:51;98907.38;;;-1.14;97.10
39897;BME280;25567;48.276;14.242;2023-01-28T04:38:17;98902.34;;;-1.16;97.11
39897;BME280;25567;48.276;14.242;2023-01-28T04:40:44;98901.38;;;-1.15;97.23
39897;BME280;25567;48.276;14.242;2023-01-28T04:43:14;98910.84;;;-1.14;97.97
39897;BME280;25567;48.276;14.242;2023-01-28T04:45:40;98916.03;;;-1.14;98.36
39897;BME280;25567;48.276;14.242;2023-01-28T04:48:07;98916.03;;;-1.14;98.91
39897;BME280;25567;48.276;14.242;2023-01-28T04:50:41;98912.75;;;-1.16;98.54
39897;BME280;25567;48.276;14.242;2023-01-28T04:53:08;98916.31;;;-1.17;97.72
39897;BME280;25567;48.276;14.242;2023-01-28T04:55:35;98920.56;;;-1.16;97.37
39897;BME280;25567;48.276;14.242;2023-01-28T04:58:02;98917.16;;;-1.16;97.19
39897;BME280;25567;48.276;14.242;2023-01-28T05:00:29;98925.63;;;-1.14;95.74
39897;BME280;25567;48.276;14.242;2023-01-28T05:02:56;98922.19;;;-1.15;96.34
39897;BME280;25567;48.276;14.242;2023-01-28T05:05:22;98927.56;;;-1.16;96.68
39897;BME280;25567;48.276;14.242;2023-01-28T05:07:51;98927.81;;;-1.20;96.79
39897;BME280;25567;48.276;14.242;2023-01-28T05:10:17;98925.91;;;-1.18;97.27
39897;BME280;25567;48.276;14.242;2023-01-28T05:12:46;98929.06;;;-1.14;98.89
39897;BME280;25567;48.276;14.242;2023-01-28T05:15:15;98926.56;;;-1.15;99.93
39897;BME280;25567;48.276;14.242;2023-01-28T05:17:43;98933.56;;;-1.16;100.00
39897;BME280;25567;48.276;14.242;2023-01-28T05:20:12;98932.31;;;-1.12;99.26
39897;BME280;25567;48.276;14.242;2023-01-28T05:22:40;98942.88;;;-1.13;97.73
39897;BME280;25567;48.276;14.242;2023-01-28T05:25:08;98941.94;;;-1.12;99.53
39897;BME280;25567;48.276;14.242;2023-01-28T05:27:35;98936.72;;;-1.22;99.40
39897;BME280;25567;48.276;14.242;2023-01-28T05:30:02;98939.31;;;-1.22;100.00
39897;BME280;25567;48.276;14.242;2023-01-28T05:32:29;98940.69;;;-1.18;100.00
39897;BME280;25567;48.276;14.242;2023-01-28T05:34:55;98948.50;;;-1.18;100.00
39897;BME280;25567;48.276;14.242;2023-01-28T05:37:22;98950.44;;;-1.20;100.00
39897;BME280;25567;48.276;14.242;2023-01-28T05:39:49;98951.81;;;-1.26;98.57
39897;BME280;25567;48.276;14.242;2023-01-28T05:42:15;98953.88;;;-1.29;97.99
39897;BME280;25567;48.276;14.242;2023-01-28T05:44:43;98957.84;;;-1.25;98.96
39897;BME280;25567;48.276;14.242;2023-01-28T05:47:10;98962.91;;;-1.24;98.33
39897;BME280;25567;48.276;14.242;2023-01-28T05:49:37;98968.81;;;-1.22;100.00
39897;BME280;25567;48.276;14.242;2023-01-28T05:52:03;98967.16;;;-1.23;99.41
39897;BME280;25567;48.276;14.242;2023-01-28T05:54:30;98959.63;;;-1.26;99.22
39897;BME280;25567;48.276;14.242;2023-01-28T05:56:56;98965.38;;;-1.22;98.09
39897;BME280;25567;48.276;14.242;2023-01-28T05:59:23;98974.00;;;-1.22;97.64
39897;BME280;25567;48.276;14.242;2023-01-28T06:01:50;98979.63;;;-1.26;98.25
39897;BME280;25567;48.276;14.242;2023-01-28T06:04:16;98977.16;;;-1.28;97.59
39897;BME280;25567;48.276;14.242;2023-01-28T06:06:46;98975.09;;;-1.24;97.51
39897;BME280;25567;48.276;14.242;2023-01-28T06:09:13;98977.72;;;-1.24;97.99
39897;BME280;25567;48.276;14.242;2023-01-28T06:11:39;98983.06;;;-1.26;98.72
39897;BME280;25567;48.276;14.242;2023-01-28T06:14:06;98977.72;;;-1.24;98.13
39897;BME280;25567;48.276;14.242;2023-01-28T06:16:33;98977.72;;;-1.24;98.28
39897;BME280;25567;48.276;14.242;2023-01-28T06:19:00;98984.69;;;-1.25;98.75
39897;BME280;25567;48.276;14.242;2023-01-28T06:21:27;98985.38;;;-1.23;99.04
39897;BME280;25567;48.276;14.242;2023-01-28T06:23:55;98990.72;;;-1.24;98.37
39897;BME280;25567;48.276;14.242;2023-01-28T06:26:22;98994.97;;;-1.23;98.73
39897;BME280;25567;48.276;14.242;2023-01-28T06:28:48;99001.53;;;-1.19;99.28
39897;BME280;25567;48.276;14.242;2023-01-28T06:31:15;99001.00;;;-1.23;99.30
39897;BME280;25567;48.276;14.242;2023-01-28T06:33:42;99007.56;;;-1.19;99.66
39897;BME280;25567;48.276;14.242;2023-01-28T06:36:09;99007.41;;;-1.17;99.92
39897;BME280;25567;48.276;14.242;2023-01-28T06:38:35;99005.38;;;-1.13;100.00
39897;BME280;25567;48.276;14.242;2023-01-28T06:41:02;99004.56;;;-1.14;100.00
39897;BME280;25567;48.276;14.242;2023-01-28T06:43:29;99012.22;;;-1.12;100.00
39897;BME280;25567;48.276;14.242;2023-01-28T06:45:57;99008.66;;;-1.11;98.68
39897;BME280;25567;48.276;14.242;2023-01-28T06:48:25;99012.88;;;-1.10;98.31
39897;BME280;25567;48.276;14.242;2023-01-28T06:50:52;99021.38;;;-0.98;97.17
39897;BME280;25567;48.276;14.242;2023-01-28T06:53:19;99013.41;;;-0.97;96.52
39897;BME280;25567;48.276;14.242;2023-01-28T06:55:46;99024.94;;;-0.99;95.99
39897;BME280;25567;48.276;14.242;2023-01-28T06:58:13;99018.94;;;-1.10;95.70
39897;BME280;25567;48.276;14.242;2023-01-28T07:00:39;99022.50;;;-1.11;96.42
39897;BME280;25567;48.276;14.242;2023-01-28T07:03:06;99020.19;;;-1.14;97.72
39897;BME280;25567;48.276;14.242;2023-01-28T07:05:33;99021.13;;;-1.15;98.88
39897;BME280;25567;48.276;14.242;2023-01-28T07:07:59;99024.44;;;-1.23;100.00
39897;BME280;25567;48.276;14.242;2023-01-28T07:10:28;99026.22;;;-1.23;100.00
39897;BME280;25567;48.276;14.242;2023-01-28T07:12:55;99026.31;;;-1.25;100.00
39897;BME280;25567;48.276;14.242;2023-01-28T07:15:21;99021.56;;;-1.29;100.00
39897;BME280;25567;48.276;14.242;2023-01-28T07:17:48;99023.47;;;-1.22;100.00
39897;BME280;25567;48.276;14.242;2023-01-28T07:20:15;99033.63;;;-1.28;100.00
39897;BME280;25567;48.276;14.242;2023-01-28T07:22:43;99028.53;;;-1.20;100.00
39897;BME280;25567;48.276;14.242;2023-01-28T07:25:11;99027.31;;;-1.26;100.00
39897;BME280;25567;48.276;14.242;2023-01-28T07:27:39;99034.97;;;-1.05;100.00
39897;BME280;25567;48.276;14.242;2023-01-28T07:30:06;99041.28;;;-1.07;100.00
39897;BME280;25567;48.276;14.242;2023-01-28T07:32:32;99039.34;;;-1.25;100.00
39897;BME280;25567;48.276;14.242;2023-01-28T07:34:59;99045.38;;;-1.24;100.00
39897;BME280;25567;48.276;14.242;2023-01-28T07:37:26;99045.66;;;-1.27;100.00
39897;BME280;25567;48.276;14.242;2023-01-28T07:39:52;99041.69;;;-1.02;100.00
39897;BME280;25567;48.276;14.242;2023-01-28T07:42:19;99037.81;;;-1.08;100.00
39897;BME280;25567;48.276;14.242;2023-01-28T07:44:45;99040.84;;;-1.12;100.00
39897;BME280;25567;48.276;14.242;2023-01-28T07:47:12;99035.25;;;-1.18;100.00
39897;BME280;25567;48.276;14.242;2023-01-28T07:49:39;99039.47;;;-1.07;100.00
39897;BME280;25567;48.276;14.242;2023-01-28T07:52:07;99042.78;;;-1.14;100.00
39897;BME280;25567;48.276;14.242;2023-01-28T07:54:33;99049.34;;;-1.10;99.97
39897;BME280;25567;48.276;14.242;2023-01-28T07:57:00;99061.13;;;-0.96;99.74
39897;BME280;25567;48.276;14.242;2023-01-28T07:59:27;99051.25;;;-1.03;98.80
39897;BME280;25567;48.276;14.242;2023-01-28T08:01:53;99058.78;;;-0.99;98.91
39897;BME280;25567;48.276;14.242;2023-01-28T08:04:20;99055.53;;;-1.11;98.26
39897;BME280;25567;48.276;14.242;2023-01-28T08:06:47;99057.16;;;-1.10;98.15
39897;BME280;25567;48.276;14.242;2023-01-28T08:09:14;99066.63;;;-1.19;98.23
39897;BME280;25567;48.276;14.242;2023-01-28T08:11:40;99063.06;;;-1.08;98.53
39897;BME280;25567;48.276;14.242;2023-01-28T08:14:09;99068.66;;;-1.13;98.06
39897;BME280;25567;48.276;14.242;2023-01-28T08:16:36;99064.97;;;-1.10;98.90
39897;BME280;25567;48.276;14.242;2023-01-28T08:19:02;99068.13;;;-1.07;99.11
39897;BME280;25567;48.276;14.242;2023-01-28T08:21:29;99074.00;;;-1.14;98.65
39897;BME280;25567;48.276;14.242;2023-01-28T08:23:56;99074.16;;;-1.16;98.83
39897;BME280;25567;48.276;14.242;2023-01-28T08:26:22;99078.41;;;-1.15;98.43
39897;BME280;25567;48.276;14.242;2023-01-28T08:28:49;99077.69;;;-0.97;97.62
39897;BME280;25567;48.276;14.242;2023-01-28T08:31:17;99076.88;;;-0.98;96.93
39897;BME280;25567;48.276;14.242;2023-01-28T08:33:44;99073.44;;;-0.98;97.52
39897;BME280;25567;48.276;14.242;2023-01-28T08:36:10;99078.78;;;-0.90;97.00
39897;BME280;25567;48.276;14.242;2023-01-28T08:38:37;99073.59;;;-1.00;96.08
39897;BME280;25567;48.276;14.242;2023-01-28T08:41:04;99069.88;;;-0.97;96.08
39897;BME280;25567;48.276;14.242;2023-01-28T08:43:30;99078.25;;;-0.94;96.39
39897;BME280;25567;48.276;14.242;2023-01-28T08:45:57;99086.22;;;-0.95;97.14
39897;BME280;25567;48.276;14.242;2023-01-28T08:48:24;99080.59;;;-1.01;98.08
39897;BME280;25567;48.276;14.242;2023-01-28T08:50:57;99094.16;;;-1.07;98.62
39897;BME280;25567;48.276;14.242;2023-01-28T08:53:24;99083.88;;;-1.18;99.15
39897;BME280;25567;48.276;14.242;2023-01-28T08:55:50;99091.69;;;-1.18;99.89
39897;BME280;25567;48.276;14.242;2023-01-28T08:58:17;99089.91;;;-1.08;100.00
39897;BME280;25567;48.276;14.242;2023-01-28T09:00:44;99095.69;;;-1.14;100.00
39897;BME280;25567;48.276;14.242;2023-01-28T09:03:11;99091.69;;;-1.08;100.00
39897;BME280;25567;48.276;14.242;2023-01-28T09:05:38;99093.19;;;-1.15;100.00
39897;BME280;25567;48.276;14.242;2023-01-28T09:08:08;99089.38;;;-1.11;100.00
39897;BME280;25567;48.276;14.242;2023-01-28T09:10:35;99095.78;;;-1.15;100.00
39897;BME280;25567;48.276;14.242;2023-01-28T09:13:05;99096.50;;;-1.13;100.00
39897;BME280;25567;48.276;14.242;2023-01-28T09:15:33;99095.81;;;-1.06;100.00
39897;BME280;25567;48.276;14.242;2023-01-28T09:18:00;99110.19;;;-1.11;100.00
39897;BME280;25567;48.276;14.242;2023-01-28T09:20:27;99109.38;;;-1.22;100.00
39897;BME280;25567;48.276;14.242;2023-01-28T09:22:53;99108.69;;;-1.33;100.00
39897;BME280;25567;48.276;14.242;2023-01-28T09:25:20;99107.16;;;-1.36;100.00
39897;BME280;25567;48.276;14.242;2023-01-28T09:27:47;99111.94;;;-1.31;100.00
39897;BME280;25567;48.276;14.242;2023-01-28T09:30:14;99108.69;;;-1.33;100.00
39897;BME280;25567;48.276;14.242;2023-01-28T09:32:41;99108.00;;;-1.26;100.00
39897;BME280;25567;48.276;14.242;2023-01-28T09:35:08;99109.78;;;-1.26;100.00
39897;BME280;25567;48.276;14.242;2023-01-28T09:37:34;99110.19;;;-1.21;100.00
39897;BME280;25567;48.276;14.242;2023-01-28T09:40:02;99106.50;;;-1.28;100.00
39897;BME280;25567;48.276;14.242;2023-01-28T09:42:38;99108.28;;;-1.19;100.00
39897;BME280;25567;48.276;14.242;2023-01-28T09:47:54;99103.06;;;-1.19;100.00
39897;BME280;25567;48.276;14.242;2023-01-28T09:50:31;99107.03;;;-1.15;100.00
39897;BME280;25567;48.276;14.242;2023-01-28T09:53:06;99104.44;;;-0.95;100.00
39897;BME280;25567;48.276;14.242;2023-01-28T09:55:40;99110.03;;;-1.00;100.00
39897;BME280;25567;48.276;14.242;2023-01-28T09:58:11;99104.16;;;-1.12;100.00
39897;BME280;25567;48.276;14.242;2023-01-28T10:09:06;99108.69;;;-1.04;100.00
39897;BME280;25567;48.276;14.242;2023-01-28T10:17:35;99101.81;;;-1.05;100.00
39897;BME280;25567;48.276;14.242;2023-01-28T10:20:15;99094.00;;;-1.05;100.00
39897;BME280;25567;48.276;14.242;2023-01-28T10:25:30;99097.88;;;-1.19;100.00
39897;BME280;25567;48.276;14.242;2023-01-28T10:27:59;99093.06;;;-1.14;100.00
39897;BME280;25567;48.276;14.242;2023-01-28T10:30:30;99092.22;;;-1.14;100.00
39897;BME280;25567;48.276;14.242;2023-01-28T10:33:03;99097.47;;;-1.05;100.00
39897;BME280;25567;48.276;14.242;2023-01-28T10:35:35;99096.75;;;-1.07;100.00
39897;BME280;25567;48.276;14.242;2023-01-28T10:38:05;99098.56;;;-1.07;100.00
39897;BME280;25567;48.276;14.242;2023-01-28T10:40:34;99098.81;;;-1.10;100.00
39897;BME280;25567;48.276;14.242;2023-01-28T10:43:01;99100.31;;;-1.08;100.00
39897;BME280;25567;48.276;14.242;2023-01-28T10:45:33;99097.16;;;-1.02;100.00
39897;BME280;25567;48.276;14.242;2023-01-28T10:48:10;99097.03;;;-1.10;100.00
39897;BME280;25567;48.276;14.242;2023-01-28T10:50:49;99087.44;;;-1.09;100.00
39897;BME280;25567;48.276;14.242;2023-01-28T10:53:18;99090.84;;;-1.09;100.00
39897;BME280;25567;48.276;14.242;2023-01-28T10:55:53;99098.28;;;-1.14;100.00
39897;BME280;25567;48.276;14.242;2023-01-28T10:58:26;99093.75;;;-1.12;100.00
39897;BME280;25567;48.276;14.242;2023-01-28T11:00:58;99097.31;;;-1.13;100.00
39897;BME280;25567;48.276;14.242;2023-01-28T11:03:25;99100.06;;;-1.05;100.00
39897;BME280;25567;48.276;14.242;2023-01-28T11:05:55;99099.22;;;-1.05;100.00
39897;BME280;25567;48.276;14.242;2023-01-28T11:08:24;99091.56;;;-1.07;100.00
39897;BME280;25567;48.276;14.242;2023-01-28T11:10:52;99097.72;;;-1.08;100.00
39897;BME280;25567;48.276;14.242;2023-01-28T11:13:21;99085.25;;;-1.14;100.00
39897;BME280;25567;48.276;14.242;2023-01-28T11:15:52;99088.97;;;-1.16;100.00
39897;BME280;25567;48.276;14.242;2023-01-28T11:18:21;99085.13;;;-1.12;100.00
39897;BME280;25567;48.276;14.242;2023-01-28T11:20:53;99098.13;;;-1.22;100.00
39897;BME280;25567;48.276;14.242;2023-01-28T11:23:26;99088.69;;;-1.13;100.00
39897;BME280;25567;48.276;14.242;2023-01-28T11:28:30;99090.47;;;-1.14;100.00
39897;BME280;25567;48.276;14.242;2023-01-28T11:30:59;99094.59;;;-1.11;100.00
39897;BME280;25567;48.276;14.242;2023-01-28T11:36:17;99090.31;;;-1.03;100.00
39897;BME280;25567;48.276;14.242;2023-01-28T11:39:02;99091.56;;;-1.07;100.00
39897;BME280;25567;48.276;14.242;2023-01-28T11:41:33;99094.28;;;-0.98;100.00
39897;BME280;25567;48.276;14.242;2023-01-28T11:44:16;99093.31;;;-0.97;100.00
39897;BME280;25567;48.276;14.242;2023-01-28T11:47:09;99085.25;;;-1.04;100.00
39897;BME280;25567;48.276;14.242;2023-01-28T11:50:00;99082.78;;;-1.06;100.00
39897;BME280;25567;48.276;14.242;2023-01-28T11:58:00;99081.81;;;-0.95;100.00
39897;BME280;25567;48.276;14.242;2023-01-28T12:09:14;99083.16;;;-0.91;100.00
39897;BME280;25567;48.276;14.242;2023-01-28T12:17:41;99082.06;;;-0.88;100.00
39897;BME280;25567;48.276;14.242;2023-01-28T12:25:38;99084.81;;;-0.90;100.00
39897;BME280;25567;48.276;14.242;2023-01-28T12:28:26;99088.94;;;-0.87;100.00
39897;BME280;25567;48.276;14.242;2023-01-28T12:31:06;99083.03;;;-0.89;100.00
39897;BME280;25567;48.276;14.242;2023-01-28T12:34:01;99082.63;;;-0.85;100.00
39897;BME280;25567;48.276;14.242;2023-01-28T12:37:10;99085.63;;;-0.79;100.00
39897;BME280;25567;48.276;14.242;2023-01-28T12:45:19;99081.78;;;-0.85;100.00
39897;BME280;25567;48.276;14.242;2023-01-28T12:47:53;99080.13;;;-0.76;100.00
39897;BME280;25567;48.276;14.242;2023-01-28T12:50:29;99085.38;;;-0.86;100.00
39897;BME280;25567;48.276;14.242;2023-01-28T12:55:48;99091.53;;;-0.87;100.00
39897;BME280;25567;48.276;14.242;2023-01-28T12:58:23;99093.03;;;-0.85;100.00
39897;BME280;25567;48.276;14.242;2023-01-28T13:00:57;99084.00;;;-0.80;100.00
39897;BME280;25567;48.276;14.242;2023-01-28T13:09:15;99087.53;;;-0.81;100.00
39897;BME280;25567;48.276;14.242;2023-01-28T13:11:44;99084.09;;;-0.72;100.00
39897;BME280;25567;48.276;14.242;2023-01-28T13:14:12;99091.38;;;-0.76;100.00
39897;BME280;25567;48.276;14.242;2023-01-28T13:16:40;99088.09;;;-0.78;100.00
39897;BME280;25567;48.276;14.242;2023-01-28T13:19:21;99093.16;;;-0.76;100.00
39897;BME280;25567;48.276;14.242;2023-01-28T13:21:48;99082.31;;;-0.72;100.00
39897;BME280;25567;48.276;14.242;2023-01-28T13:26:54;99096.16;;;-0.81;100.00
39897;BME280;25567;48.276;14.242;2023-01-28T13:29:32;99093.56;;;-0.71;100.00
39897;BME280;25567;48.276;14.242;2023-01-28T13:32:02;99105.63;;;-0.70;100.00
39897;BME280;25567;48.276;14.242;2023-01-28T13:37:38;99104.81;;;-0.71;100.00
39897;BME280;25567;48.276;14.242;2023-01-28T13:40:27;99110.00;;;-0.71;100.00
39897;BME280;25567;48.276;14.242;2023-01-28T13:45:38;99109.28;;;-0.53;100.00
39897;BME280;25567;48.276;14.242;2023-01-28T13:50:51;99111.63;;;-0.50;100.00
39897;BME280;25567;48.276;14.242;2023-01-28T13:55:51;99115.63;;;-0.65;100.00
39897;BME280;25567;48.276;14.242;2023-01-28T14:04:22;99122.19;;;-0.61;100.00
39897;BME280;25567;48.276;14.242;2023-01-28T14:09:42;99120.97;;;-0.67;100.00
39897;BME280;25567;48.276;14.242;2023-01-28T14:15:31;99121.78;;;-0.67;100.00
39897;BME280;25567;48.276;14.242;2023-01-28T14:18:17;99121.69;;;-0.65;100.00
39897;BME280;25567;48.276;14.242;2023-01-28T14:20:48;99128.38;;;-0.62;100.00
39897;BME280;25567;48.276;14.242;2023-01-28T14:23:17;99131.25;;;-0.65;100.00
39897;BME280;25567;48.276;14.242;2023-01-28T14:31:38;99130.84;;;-0.71;100.00
39897;BME280;25567;48.276;14.242;2023-01-28T14:36:52;99126.75;;;-0.63;100.00
39897;BME280;25567;48.276;14.242;2023-01-28T14:39:30;99139.06;;;-0.65;100.00
39897;BME280;25567;48.276;14.242;2023-01-28T14:42:00;99142.78;;;-0.58;100.00
39897;BME280;25567;48.276;14.242;2023-01-28T14:44:43;99143.19;;;-0.63;100.00
39897;BME280;25567;48.276;14.242;2023-01-28T14:47:31;99149.34;;;-0.64;100.00
39897;BME280;25567;48.276;14.242;2023-01-28T14:55:44;99150.47;;;-0.67;100.00
39897;BME280;25567;48.276;14.242;2023-01-28T14:58:20;99153.34;;;-0.70;100.00
39897;BME280;25567;48.276;14.242;2023-01-28T15:00:54;99154.84;;;-0.67;100.00
39897;BME280;25567;48.276;14.242;2023-01-28T15:03:21;99154.16;;;-0.59;100.00
39897;BME280;25567;48.276;14.242;2023-01-28T15:06:15;99155.81;;;-0.58;100.00